createdAt,value
2023-01-04T00:00:17.283Z,99605.59
2023-01-04T00:03:05.659Z,99607.56
2023-01-04T00:05:54.934Z,99610.41
2023-01-04T00:08:43.322Z,99599.06
2023-01-04T00:11:31.238Z,99604.44
2023-01-04T00:14:22.159Z,99603.59
2023-01-04T00:17:11.401Z,99604.56
2023-01-04T00:19:59.267Z,99603.81
2023-01-04T00:22:48.434Z,99608.25
2023-01-04T00:25:38.933Z,99610.16
2023-01-04T00:28:26.553Z,99601.56
2023-01-04T00:31:16.338Z,99602.56
2023-01-04T00:34:07.022Z,99588.81
2023-01-04T00:36:56.854Z,99598.56
2023-01-04T00:39:44.899Z,99599.53
2023-01-04T00:42:32.869Z,99585.75
2023-01-04T00:45:20.658Z,99583.34
2023-01-04T00:48:08.658Z,99586.13
2023-01-04T00:50:58.030Z,99573.19
2023-01-04T00:53:45.635Z,99569.78
2023-01-04T00:56:34.739Z,99569.06
2023-01-04T00:59:23.536Z,99572.84
2023-01-04T01:02:12.066Z,99570.28
2023-01-04T01:05:01.339Z,99565.09
2023-01-04T01:07:51.432Z,99560.09
2023-01-04T01:10:39.397Z,99549.09
2023-01-04T01:13:27.298Z,99560.59
2023-01-04T01:16:27.325Z,99562.41
2023-01-04T01:19:26.426Z,99557.31
2023-01-04T01:22:16.424Z,99564.41
2023-01-04T01:25:05.960Z,99558.44
2023-01-04T01:27:53.651Z,99555.00
2023-01-04T01:30:42.629Z,99561.09
2023-01-04T01:33:30.393Z,99562.09
2023-01-04T01:36:21.018Z,99560.44
2023-01-04T01:39:08.965Z,99566.69
2023-01-04T01:41:59.486Z,99556.50
2023-01-04T01:45:01.540Z,99560.88
2023-01-04T01:47:52.555Z,99559.22
2023-01-04T01:50:44.930Z,99555.78
2023-01-04T01:53:38.652Z,99554.84
2023-01-04T01:56:30.381Z,99552.38
2023-01-04T01:59:20.662Z,99549.00
2023-01-04T02:02:11.734Z,99552.59
2023-01-04T02:05:05.772Z,99544.88
2023-01-04T02:07:54.151Z,99548.13
2023-01-04T02:10:41.884Z,99536.44
2023-01-04T02:13:46.713Z,99533.44
2023-01-04T02:17:01.139Z,99536.56
2023-01-04T02:20:11.117Z,99529.44
2023-01-04T02:23:28.754Z,99532.19
2023-01-04T02:27:04.873Z,99538.50
2023-01-04T02:30:38.440Z,99536.13
2023-01-04T02:33:49.010Z,99537.50
2023-01-04T02:36:44.398Z,99537.31
2023-01-04T02:39:42.668Z,99527.84
2023-01-04T02:42:58.280Z,99541.50
2023-01-04T02:45:53.561Z,99535.38
2023-01-04T02:49:02.895Z,99543.16
2023-01-04T02:51:50.656Z,99539.53
2023-01-04T02:54:39.186Z,99533.13
2023-01-04T02:57:37.570Z,99533.59
2023-01-04T03:01:02.538Z,99532.53
2023-01-04T03:04:23.759Z,99519.88
2023-01-04T03:07:18.522Z,99525.78
2023-01-04T03:10:12.097Z,99525.38
2023-01-04T03:13:06.204Z,99517.94
2023-01-04T03:15:58.540Z,99502.81
2023-01-04T03:18:49.235Z,99496.34
2023-01-04T03:21:44.958Z,99497.91
2023-01-04T03:24:52.230Z,99496.69
2023-01-04T03:27:59.401Z,99493.03
2023-01-04T03:31:14.233Z,99494.44
2023-01-04T03:34:20.086Z,99487.91
2023-01-04T03:37:17.393Z,99484.19
2023-01-04T03:40:37.626Z,99479.69
2023-01-04T03:43:52.688Z,99471.53
2023-01-04T03:47:05.519Z,99474.69
2023-01-04T03:50:02.128Z,99464.91
2023-01-04T03:52:53.437Z,99465.53
2023-01-04T03:55:43.673Z,99450.25
2023-01-04T03:58:33.564Z,99454.50
2023-01-04T04:01:25.284Z,99455.28
2023-01-04T04:04:31.147Z,99441.63
2023-01-04T04:07:36.697Z,99443.97
2023-01-04T04:10:25.992Z,99434.91
2023-01-04T04:13:14.144Z,99433.91
2023-01-04T04:16:01.879Z,99426.66
2023-01-04T04:18:50.056Z,99434.38
2023-01-04T04:21:37.884Z,99433.28
2023-01-04T04:24:27.734Z,99426.28
2023-01-04T04:27:19.918Z,99436.53
2023-01-04T04:30:08.947Z,99425.03
2023-01-04T04:32:57.229Z,99419.38
2023-01-04T04:35:45.399Z,99410.47
2023-01-04T04:38:33.277Z,99417.19
2023-01-04T04:41:38.551Z,99415.25
2023-01-04T04:44:27.581Z,99414.16
2023-01-04T04:47:15.650Z,99401.88
2023-01-04T04:50:03.815Z,99409.53
2023-01-04T04:52:56.301Z,99403.25
2023-01-04T04:55:44.543Z,99395.22
2023-01-04T04:58:35.286Z,99397.66
2023-01-04T05:01:26.769Z,99399.28
2023-01-04T05:04:16.943Z,99395.53
2023-01-04T05:07:10.672Z,99392.84
2023-01-04T05:10:00.106Z,99392.66
2023-01-04T05:13:03.863Z,99380.41
2023-01-04T05:15:55.272Z,99387.25
2023-01-04T05:18:44.238Z,99394.22
2023-01-04T05:21:32.133Z,99397.75
2023-01-04T05:24:26.257Z,99399.28
2023-01-04T05:27:14.413Z,99398.53
2023-01-04T05:30:19.837Z,99393.38
2023-01-04T05:33:08.074Z,99387.41
2023-01-04T05:35:58.840Z,99384.03
2023-01-04T05:38:48.753Z,99385.72
2023-01-04T05:42:13.237Z,99388.28
2023-01-04T05:45:07.361Z,99391.75
2023-01-04T05:47:55.853Z,99389.88
2023-01-04T05:50:45.795Z,99384.47
2023-01-04T05:53:34.960Z,99387.88
2023-01-04T05:56:25.210Z,99385.97
2023-01-04T05:59:13.576Z,99378.78
2023-01-04T06:02:01.600Z,99368.19
2023-01-04T06:04:59.138Z,99361.09
2023-01-04T06:07:48.863Z,99359.13
2023-01-04T06:10:40.409Z,99353.03
2023-01-04T06:13:28.195Z,99359.03
2023-01-04T06:16:18.169Z,99358.13
2023-01-04T06:19:07.729Z,99357.91
2023-01-04T06:21:56.200Z,99351.84
2023-01-04T06:24:44.429Z,99342.94
2023-01-04T06:27:35.204Z,99338.44
2023-01-04T06:30:23.111Z,99332.25
2023-01-04T06:33:13.256Z,99333.94
2023-01-04T06:36:01.476Z,99332.84
2023-01-04T06:38:49.556Z,99329.09
2023-01-04T06:41:38.955Z,99328.41
2023-01-04T06:44:28.126Z,99324.63
2023-01-04T06:47:17.672Z,99315.69
2023-01-04T06:50:07.198Z,99318.25
2023-01-04T06:52:54.929Z,99308.63
2023-01-04T06:55:45.757Z,99307.56
2023-01-04T06:58:33.518Z,99314.50
2023-01-04T07:01:22.598Z,99319.75
2023-01-04T07:04:11.639Z,99312.63
2023-01-04T07:06:59.565Z,99305.50
2023-01-04T07:09:49.169Z,99300.06
2023-01-04T07:12:37.379Z,99285.06
2023-01-04T07:15:39.317Z,99287.50
2023-01-04T07:18:29.291Z,99285.44
2023-01-04T07:21:17.244Z,99282.72
2023-01-04T07:24:05.495Z,99287.53
2023-01-04T07:26:53.002Z,99288.28
2023-01-04T07:29:43.809Z,99274.88
2023-01-04T07:32:31.484Z,99278.16
2023-01-04T07:35:21.268Z,99278.72
2023-01-04T07:38:09.190Z,99273.28
2023-01-04T07:41:00.381Z,99282.88
2023-01-04T07:43:48.251Z,99274.03
2023-01-04T07:46:37.534Z,99273.75
2023-01-04T07:49:28.574Z,99261.34
2023-01-04T07:52:17.656Z,99258.44
2023-01-04T07:55:05.612Z,99268.88
2023-01-04T07:57:55.246Z,99274.06
2023-01-04T08:00:43.236Z,99261.53
2023-01-04T08:03:31.163Z,99268.41
2023-01-04T08:06:21.130Z,99257.81
2023-01-04T08:09:13.235Z,99254.13
2023-01-04T08:12:01.574Z,99236.38
2023-01-04T08:14:49.681Z,99243.22
2023-01-04T08:17:37.555Z,99236.09
2023-01-04T08:20:25.337Z,99236.91
2023-01-04T08:23:13.367Z,99227.06
2023-01-04T08:26:06.438Z,99226.88
2023-01-04T08:28:54.793Z,99226.78
2023-01-04T08:31:42.861Z,99228.47
2023-01-04T08:34:32.267Z,99223.84
2023-01-04T08:37:19.960Z,99220.84
2023-01-04T08:40:11.616Z,99208.31
2023-01-04T08:43:00.841Z,99201.06
2023-01-04T08:45:48.635Z,99192.88
2023-01-04T08:48:36.762Z,99180.34
2023-01-04T08:51:24.688Z,99170.19
2023-01-04T08:54:13.247Z,99170.63
2023-01-04T08:57:01.365Z,99168.25
2023-01-04T08:59:50.789Z,99163.41
2023-01-04T09:02:39.025Z,99172.91
2023-01-04T09:05:33.164Z,99184.56
2023-01-04T09:08:27.496Z,99184.38
2023-01-04T09:11:17.719Z,99185.69
2023-01-04T09:14:09.380Z,99180.00
2023-01-04T09:16:58.790Z,99177.72
2023-01-04T09:19:46.506Z,99176.25
2023-01-04T09:22:34.523Z,99170.13
2023-01-04T09:25:22.362Z,99177.63
2023-01-04T09:28:12.773Z,99185.25
2023-01-04T09:31:05.250Z,99182.63
2023-01-04T09:37:02.973Z,99172.50
2023-01-04T09:39:50.983Z,99172.31
2023-01-04T09:42:47.472Z,99178.47
2023-01-04T09:45:38.292Z,99181.41
2023-01-04T09:48:30.282Z,99179.94
2023-01-04T09:51:23.162Z,99171.88
2023-01-04T09:54:17.087Z,99168.59
2023-01-04T09:57:05.616Z,99157.31
2023-01-04T09:59:58.417Z,99146.94
2023-01-04T10:02:48.766Z,99140.81
2023-01-04T10:05:36.479Z,99128.38
2023-01-04T10:08:25.947Z,99136.06
2023-01-04T10:11:27.605Z,99133.00
2023-01-04T10:14:36.221Z,99128.94
2023-01-04T10:18:43.441Z,99120.91
2023-01-04T10:21:29.516Z,99119.13
2023-01-04T10:24:39.974Z,99127.28
2023-01-04T10:27:42.352Z,99107.19
2023-01-04T10:30:41.117Z,99098.94
2023-01-04T10:33:38.395Z,99101.44
2023-01-04T10:36:31.516Z,99091.31
2023-01-04T10:39:32.331Z,99076.38
2023-01-04T10:42:36.732Z,99076.81
2023-01-04T10:45:35.814Z,99065.84
2023-01-04T10:48:32.150Z,99064.09
2023-01-04T10:51:29.248Z,99058.34
2023-01-04T10:54:25.463Z,99049.84
2023-01-04T10:57:19.136Z,99055.34
2023-01-04T11:00:12.834Z,99053.56
2023-01-04T11:03:09.052Z,99049.59
2023-01-04T11:06:03.660Z,99039.88
2023-01-04T11:08:56.932Z,99034.03
2023-01-04T11:11:46.645Z,99028.09
2023-01-04T11:14:37.517Z,99029.66
2023-01-04T11:17:27.294Z,99020.00
2023-01-04T11:20:15.241Z,99025.63
2023-01-04T11:23:06.704Z,99016.13
2023-01-04T11:25:59.917Z,99016.03
2023-01-04T11:28:52.690Z,99020.00
2023-01-04T11:31:50.049Z,99014.81
2023-01-04T11:34:49.042Z,99008.91
2023-01-04T11:37:38.365Z,99007.13
2023-01-04T11:40:28.119Z,98998.09
2023-01-04T11:43:20.939Z,98995.84
2023-01-04T11:46:24.305Z,99007.72
2023-01-04T11:49:21.337Z,98994.16
2023-01-04T11:52:31.085Z,98992.44
2023-01-04T11:55:26.511Z,98990.19
2023-01-04T11:58:16.464Z,98986.56
2023-01-04T12:01:06.217Z,98971.69
2023-01-04T12:03:54.181Z,98963.47
2023-01-04T12:06:48.880Z,98947.97
2023-01-04T12:09:38.074Z,98938.09
2023-01-04T12:12:30.555Z,98935.31
2023-01-04T12:15:26.456Z,98935.31
2023-01-04T12:18:21.077Z,98930.00
2023-01-04T12:21:16.503Z,98929.88
2023-01-04T12:24:08.488Z,98927.94
2023-01-04T12:26:58.132Z,98923.41
2023-01-04T12:29:55.469Z,98920.84
2023-01-04T12:32:47.696Z,98914.09
2023-01-04T12:36:04.058Z,98914.09
2023-01-04T12:39:39.014Z,98918.22
2023-01-04T12:42:28.384Z,98910.22
2023-01-04T12:45:19.628Z,98919.03
2023-01-04T12:48:57.249Z,98903.00
2023-01-04T12:51:58.278Z,98885.72
2023-01-04T12:54:55.860Z,98886.78
2023-01-04T12:58:07.847Z,98867.97
2023-01-04T13:01:24.691Z,98855.47
2023-01-04T13:04:40.866Z,98857.34
2023-01-04T13:07:32.527Z,98851.31
2023-01-04T13:10:29.153Z,98857.78
2023-01-04T13:13:32.360Z,98852.16
2023-01-04T13:16:28.708Z,98863.53
2023-01-04T13:19:22.116Z,98866.59
2023-01-04T13:22:20.943Z,98866.00
2023-01-04T13:26:04.050Z,98867.47
2023-01-04T13:29:07.766Z,98862.50
2023-01-04T13:32:00.121Z,98868.91
2023-01-04T13:34:56.533Z,98855.97
2023-01-04T13:37:46.136Z,98855.53
2023-01-04T13:40:37.468Z,98847.03
2023-01-04T13:43:56.289Z,98844.84
2023-01-04T13:46:45.605Z,98831.50
2023-01-04T13:49:33.564Z,98836.38
2023-01-04T13:52:50.514Z,98827.69
2023-01-04T13:55:34.769Z,98827.69
2023-01-04T13:58:48.071Z,98833.00
2023-01-04T14:01:41.315Z,98825.78
2023-01-04T14:04:35.945Z,98828.41
2023-01-04T14:07:24.669Z,98828.03
2023-01-04T14:10:19.900Z,98828.84
2023-01-04T14:13:09.953Z,98809.88
2023-01-04T14:16:13.076Z,98823.53
2023-01-04T14:19:25.196Z,98835.84
2023-01-04T14:22:41.417Z,98831.94
2023-01-04T14:25:48.637Z,98823.53
2023-01-04T14:28:49.678Z,98818.81
2023-01-04T14:31:38.775Z,98813.66
2023-01-04T14:34:26.406Z,98812.94
2023-01-04T14:37:14.723Z,98812.16
2023-01-04T14:40:14.444Z,98816.50
2023-01-04T14:43:02.418Z,98819.16
2023-01-04T14:45:50.469Z,98812.88
2023-01-04T14:48:38.853Z,98816.06
2023-01-04T14:51:33.884Z,98804.63
2023-01-04T14:54:25.705Z,98796.69
2023-01-04T14:57:33.044Z,98797.94
2023-01-04T15:00:21.546Z,98796.28
2023-01-04T15:03:09.621Z,98794.31
2023-01-04T15:05:58.450Z,98790.38
2023-01-04T15:08:46.637Z,98789.53
2023-01-04T15:11:34.404Z,98787.88
2023-01-04T15:14:24.316Z,98783.09
2023-01-04T15:17:12.187Z,98771.22
2023-01-04T15:20:00.197Z,98776.91
2023-01-04T15:22:48.097Z,98774.53
2023-01-04T15:25:36.563Z,98785.41
2023-01-04T15:28:26.394Z,98774.78
2023-01-04T15:31:17.192Z,98776.03
2023-01-04T15:34:09.405Z,98765.69
2023-01-04T15:36:57.287Z,98773.91
2023-01-04T15:39:46.399Z,98773.47
2023-01-04T15:42:51.678Z,98770.09
2023-01-04T15:45:40.645Z,98767.56
2023-01-04T15:48:29.683Z,98777.59
2023-01-04T15:51:17.824Z,98768.13
2023-01-04T15:54:05.784Z,98752.34
2023-01-04T15:56:53.522Z,98742.97
2023-01-04T15:59:41.395Z,98746.59
2023-01-04T16:02:29.612Z,98745.88
2023-01-04T16:05:20.828Z,98742.53
2023-01-04T16:08:09.379Z,98732.91
2023-01-04T16:10:57.348Z,98732.78
2023-01-04T16:13:47.336Z,98736.53
2023-01-04T16:16:35.245Z,98730.38
2023-01-04T16:19:23.119Z,98728.44
2023-01-04T16:22:13.815Z,98728.44
2023-01-04T16:25:10.739Z,98735.13
2023-01-04T16:27:59.493Z,98728.16
2023-01-04T16:30:49.955Z,98738.75
2023-01-04T16:33:38.209Z,98739.56
2023-01-04T16:36:27.023Z,98744.31
2023-01-04T16:39:17.049Z,98738.16
2023-01-04T16:42:10.582Z,98740.09
2023-01-04T16:44:58.999Z,98733.44
2023-01-04T16:47:49.068Z,98737.38
2023-01-04T16:50:40.977Z,98726.47
2023-01-04T16:53:29.126Z,98732.59
2023-01-04T16:56:21.162Z,98727.88
2023-01-04T16:59:10.192Z,98722.56
2023-01-04T17:01:58.468Z,98721.88
2023-01-04T17:04:49.694Z,98718.09
2023-01-04T17:07:37.704Z,98712.53
2023-01-04T17:10:29.485Z,98725.28
2023-01-04T17:13:18.976Z,98728.41
2023-01-04T17:16:07.576Z,98718.50
2023-01-04T17:18:56.783Z,98717.22
2023-01-04T17:21:44.953Z,98718.09
2023-01-04T17:24:32.937Z,98711.09
2023-01-04T17:30:42.986Z,98703.72
2023-01-04T17:33:30.825Z,98698.69
2023-01-04T17:36:20.458Z,98695.66
2023-01-04T17:39:08.602Z,98696.91
2023-01-04T17:41:56.501Z,98697.84
2023-01-04T17:44:46.077Z,98690.34
2023-01-04T17:47:36.839Z,98688.47
2023-01-04T17:50:25.931Z,98691.34
2023-01-04T17:53:13.684Z,98691.84
2023-01-04T17:56:03.921Z,98685.78
2023-01-04T17:58:51.981Z,98696.91
2023-01-04T18:01:39.896Z,98676.41
2023-01-04T18:04:29.134Z,98674.91
2023-01-04T18:07:17.774Z,98664.47
2023-01-04T18:10:06.404Z,98659.44
2023-01-04T18:12:54.237Z,98663.63
2023-01-04T18:15:54.997Z,98661.38
2023-01-04T18:18:50.173Z,98671.19
2023-01-04T18:21:39.448Z,98658.75
2023-01-04T18:24:36.781Z,98672.03
2023-01-04T18:27:26.746Z,98659.91
2023-01-04T18:30:15.481Z,98659.63
2023-01-04T18:33:09.810Z,98660.59
2023-01-04T18:36:02.846Z,98658.25
2023-01-04T18:38:55.760Z,98655.75
2023-01-04T18:41:48.316Z,98653.50
2023-01-04T18:44:37.850Z,98653.50
2023-01-04T18:47:30.583Z,98659.06
2023-01-04T18:53:47.250Z,98659.28
2023-01-04T18:56:38.811Z,98658.81
2023-01-04T18:59:34.949Z,98652.97
2023-01-04T19:02:22.812Z,98667.91
2023-01-04T19:05:11.572Z,98668.88
2023-01-04T19:07:59.487Z,98665.00
2023-01-04T19:10:50.275Z,98654.41
2023-01-04T19:13:47.497Z,98669.31
2023-01-04T19:16:53.826Z,98665.69
2023-01-04T19:19:43.070Z,98663.03
2023-01-04T19:22:30.792Z,98652.44
2023-01-04T19:25:23.180Z,98646.59
2023-01-04T19:28:14.456Z,98644.66
2023-01-04T19:31:09.288Z,98638.66
2023-01-04T19:33:57.442Z,98647.03
2023-01-04T19:36:45.142Z,98645.06
2023-01-04T19:39:33.128Z,98651.34
2023-01-04T19:42:21.250Z,98654.72
2023-01-04T19:45:10.813Z,98656.38
2023-01-04T19:48:00.451Z,98652.47
2023-01-04T19:50:48.393Z,98646.78
2023-01-04T19:53:36.818Z,98653.88
2023-01-04T19:56:24.905Z,98645.78
2023-01-04T19:59:12.739Z,98644.81
2023-01-04T20:02:02.044Z,98645.78
2023-01-04T20:08:08.331Z,98648.59
2023-01-04T20:14:42.124Z,98684.75
2023-01-04T20:17:31.438Z,98679.84
2023-01-04T20:20:22.050Z,98662.81
2023-01-04T20:23:15.130Z,98679.84
2023-01-04T20:26:10.945Z,98661.16
2023-01-04T20:29:22.452Z,98661.72
2023-01-04T20:32:17.243Z,98665.19
2023-01-04T20:35:08.723Z,98644.69
2023-01-04T20:37:58.182Z,98646.38
2023-01-04T20:40:46.207Z,98645.66
2023-01-04T20:43:33.416Z,98653.91
2023-01-04T20:46:29.647Z,98656.97
2023-01-04T20:49:18.459Z,98651.41
2023-01-04T20:52:08.452Z,98652.50
2023-01-04T20:58:05.226Z,98648.59
2023-01-04T21:00:54.855Z,98657.28
2023-01-04T21:03:43.532Z,98648.47
2023-01-04T21:06:37.181Z,98650.13
2023-01-04T21:09:34.100Z,98655.88
2023-01-04T21:15:50.332Z,98640.66
2023-01-04T21:18:38.594Z,98641.66
2023-01-04T21:21:26.383Z,98636.34
2023-01-04T21:24:14.300Z,98638.00
2023-01-04T21:27:02.513Z,98627.53
2023-01-04T21:29:54.540Z,98612.47
2023-01-04T21:32:42.424Z,98615.13
2023-01-04T21:35:35.232Z,98606.44
2023-01-04T21:38:28.759Z,98605.34
2023-01-04T21:41:33.993Z,98605.63
2023-01-04T21:44:25.352Z,98595.56
2023-01-04T21:47:14.763Z,98611.75
2023-01-04T21:50:02.853Z,98601.16
2023-01-04T21:52:50.881Z,98601.44
2023-01-04T21:55:38.684Z,98602.56
2023-01-04T21:58:29.151Z,98595.00
2023-01-04T22:01:18.916Z,98585.81
2023-01-04T22:04:08.553Z,98591.69
2023-01-04T22:06:56.606Z,98590.97
2023-01-04T22:09:44.581Z,98587.50
2023-01-04T22:12:32.516Z,98586.91
2023-01-04T22:15:20.348Z,98599.75
2023-01-04T22:18:08.457Z,98610.38
2023-01-04T22:21:07.974Z,98615.41
2023-01-04T22:23:56.363Z,98598.09
2023-01-04T22:26:47.137Z,98590.00
2023-01-04T22:29:41.000Z,98598.63
2023-01-04T22:32:35.618Z,98603.13
2023-01-04T22:35:23.910Z,98596.13
2023-01-04T22:38:13.353Z,98580.78
2023-01-04T22:41:03.735Z,98591.53
2023-01-04T22:43:57.533Z,98585.66
2023-01-04T22:46:46.542Z,98584.09
2023-01-04T22:49:36.464Z,98578.13
2023-01-04T22:52:24.191Z,98573.06
2023-01-04T22:55:13.489Z,98582.69
2023-01-04T22:58:03.630Z,98575.19
2023-01-04T23:00:52.780Z,98587.44
2023-01-04T23:03:43.268Z,98579.47
2023-01-04T23:06:32.735Z,98575.31
2023-01-04T23:09:20.904Z,98570.00
2023-01-04T23:12:10.343Z,98564.84
2023-01-04T23:15:00.045Z,98579.09
2023-01-04T23:17:47.756Z,98558.41
2023-01-04T23:20:36.482Z,98555.88
2023-01-04T23:23:24.453Z,98553.09
2023-01-04T23:26:15.727Z,98560.63
2023-01-04T23:29:05.065Z,98546.53
2023-01-04T23:31:52.938Z,98565.94
2023-01-04T23:34:41.127Z,98552.25
2023-01-04T23:37:28.862Z,98551.09
2023-01-04T23:40:16.836Z,98552.38
2023-01-04T23:43:04.776Z,98542.19
2023-01-04T23:45:54.224Z,98530.72
2023-01-04T23:48:42.320Z,98541.34
2023-01-04T23:51:30.086Z,98540.47
2023-01-04T23:54:20.673Z,98546.03
2023-01-04T23:57:08.697Z,98531.78
2023-01-04T23:59:56.856Z,98528.84
